sensor_id;sensor_type;location;lat;lon;timestamp;temperature;humidity
9776;DHT22;4927;52.472;13.108;2023-08-01T00:00:53;18.00;99.90
9776;DHT22;4927;52.472;13.108;2023-08-01T00:01:56;18.00;99.90
9776;DHT22;4927;52.472;13.108;2023-08-01T00:02:57;18.00;99.90
9776;DHT22;4927;52.472;13.108;2023-08-01T00:03:59;18.00;99.90
9776;DHT22;4927;52.472;13.108;2023-08-01T00:05:00;18.00;99.90
9776;DHT22;4927;52.472;13.108;2023-08-01T00:06:02;18.00;99.90
9776;DHT22;4927;52.472;13.108;2023-08-01T00:07:04;18.00;99.90
9776;DHT22;4927;52.472;13.108;2023-08-01T00:08:05;17.90;99.90
9776;DHT22;4927;52.472;13.108;2023-08-01T00:09:08;17.90;99.90
9776;DHT22;4927;52.472;13.108;2023-08-01T00:10:09;17.90;99.90
9776;DHT22;4927;52.472;13.108;2023-08-01T00:11:11;17.90;99.90
9776;DHT22;4927;52.472;13.108;2023-08-01T00:12:14;17.90;99.90
9776;DHT22;4927;52.472;13.108;2023-08-01T00:13:14;17.90;99.90
9776;DHT22;4927;52.472;13.108;2023-08-01T00:14:16;17.80;99.90
9776;DHT22;4927;52.472;13.108;2023-08-01T00:15:18;17.80;99.90
9776;DHT22;4927;52.472;13.108;2023-08-01T00:16:20;17.80;99.90
9776;DHT22;4927;52.472;13.108;2023-08-01T00:17:22;17.80;99.90
9776;DHT22;4927;52.472;13.108;2023-08-01T00:18:24;17.80;99.90
9776;DHT22;4927;52.472;13.108;2023-08-01T00:19:27;17.70;99.90
9776;DHT22;4927;52.472;13.108;2023-08-01T00:20:28;17.70;99.90
9776;DHT22;4927;52.472;13.108;2023-08-01T00:21:29;17.70;99.90
9776;DHT22;4927;52.472;13.108;2023-08-01T00:22:31;17.70;99.90
9776;DHT22;4927;52.472;13.108;2023-08-01T00:23:33;17.70;99.90
9776;DHT22;4927;52.472;13.108;2023-08-01T00:24:35;17.70;99.90
9776;DHT22;4927;52.472;13.108;2023-08-01T00:25:36;17.70;99.90
9776;DHT22;4927;52.472;13.108;2023-08-01T00:26:37;17.70;99.90
9776;DHT22;4927;52.472;13.108;2023-08-01T00:27:39;17.60;99.90
9776;DHT22;4927;52.472;13.108;2023-08-01T00:28:41;17.60;99.90
9776;DHT22;4927;52.472;13.108;2023-08-01T00:29:42;17.60;99.90
9776;DHT22;4927;52.472;13.108;2023-08-01T00:30:45;17.50;99.90
9776;DHT22;4927;52.472;13.108;2023-08-01T00:31:46;17.50;99.90
9776;DHT22;4927;52.472;13.108;2023-08-01T00:32:48;17.50;99.90
9776;DHT22;4927;52.472;13.108;2023-08-01T00:33:50;17.50;99.90
9776;DHT22;4927;52.472;13.108;2023-08-01T00:34:51;17.50;99.90
9776;DHT22;4927;52.472;13.108;2023-08-01T00:35:54;17.50;99.90
9776;DHT22;4927;52.472;13.108;2023-08-01T00:36:56;17.50;99.90
9776;DHT22;4927;52.472;13.108;2023-08-01T00:37:57;17.50;99.90
9776;DHT22;4927;52.472;13.108;2023-08-01T00:38:59;17.50;99.90
9776;DHT22;4927;52.472;13.108;2023-08-01T00:40:00;17.50;99.90
9776;DHT22;4927;52.472;13.108;2023-08-01T00:41:03;17.50;99.90
9776;DHT22;4927;52.472;13.108;2023-08-01T00:42:04;17.50;99.90
9776;DHT22;4927;52.472;13.108;2023-08-01T00:43:06;17.50;99.90
9776;DHT22;4927;52.472;13.108;2023-08-01T00:44:08;17.50;99.90
9776;DHT22;4927;52.472;13.108;2023-08-01T00:45:10;17.40;99.90
9776;DHT22;4927;52.472;13.108;2023-08-01T00:46:12;17.40;99.90
9776;DHT22;4927;52.472;13.108;2023-08-01T00:47:14;17.40;99.90
9776;DHT22;4927;52.472;13.108;2023-08-01T00:48:15;17.40;99.90
9776;DHT22;4927;52.472;13.108;2023-08-01T00:49:17;17.40;99.90
9776;DHT22;4927;52.472;13.108;2023-08-01T00:50:19;17.40;99.90
9776;DHT22;4927;52.472;13.108;2023-08-01T00:51:20;17.40;99.90
9776;DHT22;4927;52.472;13.108;2023-08-01T00:52:22;17.40;99.90
9776;DHT22;4927;52.472;13.108;2023-08-01T00:53:24;17.40;99.90
9776;DHT22;4927;52.472;13.108;2023-08-01T00:54:25;17.30;99.90
9776;DHT22;4927;52.472;13.108;2023-08-01T00:55:27;17.30;99.90
9776;DHT22;4927;52.472;13.108;2023-08-01T00:56:29;17.30;99.90
9776;DHT22;4927;52.472;13.108;2023-08-01T00:57:30;17.30;99.90
9776;DHT22;4927;52.472;13.108;2023-08-01T00:58:32;17.30;99.90
9776;DHT22;4927;52.472;13.108;2023-08-01T00:59:34;17.30;99.90
9776;DHT22;4927;52.472;13.108;2023-08-01T01:00:35;17.30;99.90
9776;DHT22;4927;52.472;13.108;2023-08-01T01:01:37;17.30;99.90
9776;DHT22;4927;52.472;13.108;2023-08-01T01:02:39;17.30;99.90
9776;DHT22;4927;52.472;13.108;2023-08-01T01:03:40;17.30;99.90
9776;DHT22;4927;52.472;13.108;2023-08-01T01:04:42;17.30;99.90
9776;DHT22;4927;52.472;13.108;2023-08-01T01:05:53;17.20;99.90
9776;DHT22;4927;52.472;13.108;2023-08-01T01:06:59;17.30;99.90
9776;DHT22;4927;52.472;13.108;2023-08-01T01:07:59;17.30;99.90
9776;DHT22;4927;52.472;13.108;2023-08-01T01:09:16;17.30;99.90
9776;DHT22;4927;52.472;13.108;2023-08-01T01:10:18;17.30;99.90
9776;DHT22;4927;52.472;13.108;2023-08-01T01:11:20;17.30;99.90
9776;DHT22;4927;52.472;13.108;2023-08-01T01:12:22;17.30;99.90
9776;DHT22;4927;52.472;13.108;2023-08-01T01:13:24;17.30;99.90
9776;DHT22;4927;52.472;13.108;2023-08-01T01:14:26;17.20;99.90
9776;DHT22;4927;52.472;13.108;2023-08-01T01:15:28;17.20;99.90
9776;DHT22;4927;52.472;13.108;2023-08-01T01:16:29;17.20;99.90
9776;DHT22;4927;52.472;13.108;2023-08-01T01:17:31;17.20;99.90
9776;DHT22;4927;52.472;13.108;2023-08-01T01:18:32;17.20;99.90
9776;DHT22;4927;52.472;13.108;2023-08-01T01:19:34;17.20;99.90
9776;DHT22;4927;52.472;13.108;2023-08-01T01:20:36;17.20;99.90
9776;DHT22;4927;52.472;13.108;2023-08-01T01:21:38;17.20;99.90
9776;DHT22;4927;52.472;13.108;2023-08-01T01:22:39;17.20;99.90
9776;DHT22;4927;52.472;13.108;2023-08-01T01:23:41;17.20;99.90
9776;DHT22;4927;52.472;13.108;2023-08-01T01:24:42;17.20;99.90
9776;DHT22;4927;52.472;13.108;2023-08-01T01:25:44;17.20;99.90
9776;DHT22;4927;52.472;13.108;2023-08-01T01:26:46;17.20;99.90
9776;DHT22;4927;52.472;13.108;2023-08-01T01:27:49;17.20;99.90
9776;DHT22;4927;52.472;13.108;2023-08-01T01:28:50;17.20;99.90
9776;DHT22;4927;52.472;13.108;2023-08-01T01:29:52;17.20;99.90
9776;DHT22;4927;52.472;13.108;2023-08-01T01:30:54;17.20;99.90
9776;DHT22;4927;52.472;13.108;2023-08-01T01:31:56;17.20;99.90
9776;DHT22;4927;52.472;13.108;2023-08-01T01:32:57;17.20;99.90
9776;DHT22;4927;52.472;13.108;2023-08-01T01:33:59;17.20;99.90
9776;DHT22;4927;52.472;13.108;2023-08-01T01:35:01;17.20;99.90
9776;DHT22;4927;52.472;13.108;2023-08-01T01:36:02;17.20;99.90
9776;DHT22;4927;52.472;13.108;2023-08-01T01:37:05;17.10;99.90
9776;DHT22;4927;52.472;13.108;2023-08-01T01:38:07;17.10;99.90
9776;DHT22;4927;52.472;13.108;2023-08-01T01:39:08;17.10;99.90
9776;DHT22;4927;52.472;13.108;2023-08-01T01:40:11;17.10;99.90
9776;DHT22;4927;52.472;13.108;2023-08-01T01:41:13;17.10;99.90
9776;DHT22;4927;52.472;13.108;2023-08-01T01:42:15;17.10;99.90
9776;DHT22;4927;52.472;13.108;2023-08-01T01:43:17;17.10;99.90
9776;DHT22;4927;52.472;13.108;2023-08-01T01:44:19;17.10;99.90
9776;DHT22;4927;52.472;13.108;2023-08-01T01:45:21;17.10;99.90
9776;DHT22;4927;52.472;13.108;2023-08-01T01:46:23;17.10;99.90
9776;DHT22;4927;52.472;13.108;2023-08-01T01:47:24;17.10;99.90
9776;DHT22;4927;52.472;13.108;2023-08-01T01:48:26;17.10;99.90
9776;DHT22;4927;52.472;13.108;2023-08-01T01:49:27;17.10;99.90
9776;DHT22;4927;52.472;13.108;2023-08-01T01:50:29;17.00;99.90
9776;DHT22;4927;52.472;13.108;2023-08-01T01:51:31;17.10;99.90
9776;DHT22;4927;52.472;13.108;2023-08-01T01:52:33;17.10;99.90
9776;DHT22;4927;52.472;13.108;2023-08-01T01:53:34;17.10;99.90
9776;DHT22;4927;52.472;13.108;2023-08-01T01:54:36;17.10;99.90
9776;DHT22;4927;52.472;13.108;2023-08-01T01:55:38;17.10;99.90
9776;DHT22;4927;52.472;13.108;2023-08-01T01:56:39;17.10;99.90
9776;DHT22;4927;52.472;13.108;2023-08-01T01:57:41;17.10;99.90
9776;DHT22;4927;52.472;13.108;2023-08-01T01:58:42;17.10;99.90
9776;DHT22;4927;52.472;13.108;2023-08-01T01:59:44;17.10;99.90
9776;DHT22;4927;52.472;13.108;2023-08-01T02:00:46;17.10;99.90
9776;DHT22;4927;52.472;13.108;2023-08-01T02:01:47;17.10;99.90
9776;DHT22;4927;52.472;13.108;2023-08-01T02:02:49;17.10;99.90
9776;DHT22;4927;52.472;13.108;2023-08-01T02:03:51;17.10;99.90
9776;DHT22;4927;52.472;13.108;2023-08-01T02:04:52;17.10;99.90
9776;DHT22;4927;52.472;13.108;2023-08-01T02:05:54;17.10;99.90
9776;DHT22;4927;52.472;13.108;2023-08-01T02:06:56;17.10;99.90
9776;DHT22;4927;52.472;13.108;2023-08-01T02:07:57;17.10;99.90
9776;DHT22;4927;52.472;13.108;2023-08-01T02:09:00;17.10;99.90
9776;DHT22;4927;52.472;13.108;2023-08-01T02:10:01;17.10;99.90
9776;DHT22;4927;52.472;13.108;2023-08-01T02:11:03;17.00;99.90
9776;DHT22;4927;52.472;13.108;2023-08-01T02:12:05;17.00;99.90
9776;DHT22;4927;52.472;13.108;2023-08-01T02:13:08;17.10;99.90
9776;DHT22;4927;52.472;13.108;2023-08-01T02:14:10;17.00;99.90
9776;DHT22;4927;52.472;13.108;2023-08-01T02:15:11;17.10;99.90
9776;DHT22;4927;52.472;13.108;2023-08-01T02:16:13;17.00;99.90
9776;DHT22;4927;52.472;13.108;2023-08-01T02:17:15;17.10;99.90
9776;DHT22;4927;52.472;13.108;2023-08-01T02:18:16;17.00;99.90
9776;DHT22;4927;52.472;13.108;2023-08-01T02:19:18;17.10;99.90
9776;DHT22;4927;52.472;13.108;2023-08-01T02:20:20;17.10;99.90
9776;DHT22;4927;52.472;13.108;2023-08-01T02:21:22;17.10;99.90
9776;DHT22;4927;52.472;13.108;2023-08-01T02:22:24;17.10;99.90
9776;DHT22;4927;52.472;13.108;2023-08-01T02:23:25;17.10;99.90
9776;DHT22;4927;52.472;13.108;2023-08-01T02:24:27;17.10;99.90
9776;DHT22;4927;52.472;13.108;2023-08-01T02:25:29;17.10;99.90
9776;DHT22;4927;52.472;13.108;2023-08-01T02:26:30;17.10;99.90
9776;DHT22;4927;52.472;13.108;2023-08-01T02:27:32;17.10;99.90
9776;DHT22;4927;52.472;13.108;2023-08-01T02:28:34;17.10;99.90
9776;DHT22;4927;52.472;13.108;2023-08-01T02:29:35;17.10;99.90
9776;DHT22;4927;52.472;13.108;2023-08-01T02:30:37;17.10;99.90
9776;DHT22;4927;52.472;13.108;2023-08-01T02:31:39;17.10;99.90
9776;DHT22;4927;52.472;13.108;2023-08-01T02:32:40;17.10;99.90
9776;DHT22;4927;52.472;13.108;2023-08-01T02:33:42;17.10;99.90
9776;DHT22;4927;52.472;13.108;2023-08-01T02:34:44;17.10;99.90
9776;DHT22;4927;52.472;13.108;2023-08-01T02:35:46;17.10;99.90
9776;DHT22;4927;52.472;13.108;2023-08-01T02:36:48;17.10;99.90
9776;DHT22;4927;52.472;13.108;2023-08-01T02:37:50;17.10;99.90
9776;DHT22;4927;52.472;13.108;2023-08-01T02:38:51;17.00;99.90
9776;DHT22;4927;52.472;13.108;2023-08-01T02:39:53;17.10;99.90
9776;DHT22;4927;52.472;13.108;2023-08-01T02:40:54;17.00;99.90
9776;DHT22;4927;52.472;13.108;2023-08-01T02:41:56;17.10;99.90
9776;DHT22;4927;52.472;13.108;2023-08-01T02:42:58;17.00;99.90
9776;DHT22;4927;52.472;13.108;2023-08-01T02:43:59;17.00;99.90
9776;DHT22;4927;52.472;13.108;2023-08-01T02:45:01;17.10;99.90
9776;DHT22;4927;52.472;13.108;2023-08-01T02:46:03;17.00;99.90
9776;DHT22;4927;52.472;13.108;2023-08-01T02:47:05;17.10;99.90
9776;DHT22;4927;52.472;13.108;2023-08-01T02:48:06;17.00;99.90
9776;DHT22;4927;52.472;13.108;2023-08-01T02:49:09;17.10;99.90
9776;DHT22;4927;52.472;13.108;2023-08-01T02:50:10;17.10;99.90
9776;DHT22;4927;52.472;13.108;2023-08-01T02:51:12;17.10;99.90
9776;DHT22;4927;52.472;13.108;2023-08-01T02:52:14;17.00;99.90
9776;DHT22;4927;52.472;13.108;2023-08-01T02:53:15;17.00;99.90
9776;DHT22;4927;52.472;13.108;2023-08-01T02:54:17;17.00;99.90
9776;DHT22;4927;52.472;13.108;2023-08-01T02:55:19;17.00;99.90
9776;DHT22;4927;52.472;13.108;2023-08-01T02:56:20;17.00;99.90
9776;DHT22;4927;52.472;13.108;2023-08-01T02:57:22;17.00;99.90
9776;DHT22;4927;52.472;13.108;2023-08-01T02:58:23;17.00;99.90
9776;DHT22;4927;52.472;13.108;2023-08-01T02:59:25;17.00;99.90
9776;DHT22;4927;52.472;13.108;2023-08-01T03:00:27;17.00;99.90
9776;DHT22;4927;52.472;13.108;2023-08-01T03:01:28;17.00;99.90
9776;DHT22;4927;52.472;13.108;2023-08-01T03:02:30;17.00;99.90
9776;DHT22;4927;52.472;13.108;2023-08-01T03:03:32;17.00;99.90
9776;DHT22;4927;52.472;13.108;2023-08-01T03:04:34;17.00;99.90
9776;DHT22;4927;52.472;13.108;2023-08-01T03:05:36;17.00;99.90
9776;DHT22;4927;52.472;13.108;2023-08-01T03:06:47;17.00;99.90
9776;DHT22;4927;52.472;13.108;2023-08-01T03:07:49;17.00;99.90
9776;DHT22;4927;52.472;13.108;2023-08-01T03:08:51;17.00;99.90
9776;DHT22;4927;52.472;13.108;2023-08-01T03:09:52;17.00;99.90
9776;DHT22;4927;52.472;13.108;2023-08-01T03:10:54;17.00;99.90
9776;DHT22;4927;52.472;13.108;2023-08-01T03:11:56;17.00;99.90
9776;DHT22;4927;52.472;13.108;2023-08-01T03:12:57;17.00;99.90
9776;DHT22;4927;52.472;13.108;2023-08-01T03:13:59;17.00;99.90
9776;DHT22;4927;52.472;13.108;2023-08-01T03:15:01;17.00;99.90
9776;DHT22;4927;52.472;13.108;2023-08-01T03:16:02;17.00;99.90
9776;DHT22;4927;52.472;13.108;2023-08-01T03:17:04;17.00;99.90
9776;DHT22;4927;52.472;13.108;2023-08-01T03:18:07;17.00;99.90
9776;DHT22;4927;52.472;13.108;2023-08-01T03:19:09;17.00;99.90
9776;DHT22;4927;52.472;13.108;2023-08-01T03:20:11;17.00;99.90
9776;DHT22;4927;52.472;13.108;2023-08-01T03:21:13;17.00;99.90
9776;DHT22;4927;52.472;13.108;2023-08-01T03:22:14;17.00;99.90
9776;DHT22;4927;52.472;13.108;2023-08-01T03:23:16;17.00;99.90
9776;DHT22;4927;52.472;13.108;2023-08-01T03:24:18;17.00;99.90
9776;DHT22;4927;52.472;13.108;2023-08-01T03:25:19;16.90;99.90
9776;DHT22;4927;52.472;13.108;2023-08-01T03:26:21;16.90;99.90
9776;DHT22;4927;52.472;13.108;2023-08-01T03:27:23;16.90;99.90
9776;DHT22;4927;52.472;13.108;2023-08-01T03:28:25;16.90;99.90
9776;DHT22;4927;52.472;13.108;2023-08-01T03:29:26;16.90;99.90
9776;DHT22;4927;52.472;13.108;2023-08-01T03:30:28;16.90;99.90
9776;DHT22;4927;52.472;13.108;2023-08-01T03:31:29;16.90;99.90
9776;DHT22;4927;52.472;13.108;2023-08-01T03:32:31;16.90;99.90
9776;DHT22;4927;52.472;13.108;2023-08-01T03:33:33;16.90;99.90
9776;DHT22;4927;52.472;13.108;2023-08-01T03:34:34;16.90;99.90
9776;DHT22;4927;52.472;13.108;2023-08-01T03:35:36;16.90;99.90
9776;DHT22;4927;52.472;13.108;2023-08-01T03:36:38;16.90;99.90
9776;DHT22;4927;52.472;13.108;2023-08-01T03:37:40;16.90;99.90
9776;DHT22;4927;52.472;13.108;2023-08-01T03:38:42;16.90;99.90
9776;DHT22;4927;52.472;13.108;2023-08-01T03:39:43;17.00;99.90
9776;DHT22;4927;52.472;13.108;2023-08-01T03:40:45;17.00;99.90
9776;DHT22;4927;52.472;13.108;2023-08-01T03:41:47;17.00;99.90
9776;DHT22;4927;52.472;13.108;2023-08-01T03:42:48;17.00;99.90
9776;DHT22;4927;52.472;13.108;2023-08-01T03:43:50;17.00;99.90
9776;DHT22;4927;52.472;13.108;2023-08-01T03:44:51;17.00;99.90
9776;DHT22;4927;52.472;13.108;2023-08-01T03:45:53;17.00;99.90
9776;DHT22;4927;52.472;13.108;2023-08-01T03:46:55;17.00;99.90
9776;DHT22;4927;52.472;13.108;2023-08-01T03:47:57;17.00;99.90
9776;DHT22;4927;52.472;13.108;2023-08-01T03:48:59;17.00;99.90
9776;DHT22;4927;52.472;13.108;2023-08-01T03:50:00;17.00;99.90
9776;DHT22;4927;52.472;13.108;2023-08-01T03:51:09;17.00;99.90
9776;DHT22;4927;52.472;13.108;2023-08-01T03:52:11;17.00;99.90
9776;DHT22;4927;52.472;13.108;2023-08-01T03:53:13;17.00;99.90
9776;DHT22;4927;52.472;13.108;2023-08-01T03:54:14;17.00;99.90
9776;DHT22;4927;52.472;13.108;2023-08-01T03:55:16;17.00;99.90
9776;DHT22;4927;52.472;13.108;2023-08-01T03:56:18;17.00;99.90
9776;DHT22;4927;52.472;13.108;2023-08-01T03:57:19;17.00;99.90
9776;DHT22;4927;52.472;13.108;2023-08-01T03:58:21;17.00;99.90
9776;DHT22;4927;52.472;13.108;2023-08-01T03:59:23;17.00;99.90
9776;DHT22;4927;52.472;13.108;2023-08-01T04:00:24;17.00;99.90
9776;DHT22;4927;52.472;13.108;2023-08-01T04:01:26;17.00;99.90
9776;DHT22;4927;52.472;13.108;2023-08-01T04:02:28;17.00;99.90
9776;DHT22;4927;52.472;13.108;2023-08-01T04:03:29;17.00;99.90
9776;DHT22;4927;52.472;13.108;2023-08-01T04:04:32;17.00;99.90
9776;DHT22;4927;52.472;13.108;2023-08-01T04:05:33;17.00;99.90
9776;DHT22;4927;52.472;13.108;2023-08-01T04:06:35;17.00;99.90
9776;DHT22;4927;52.472;13.108;2023-08-01T04:07:37;17.00;99.90
9776;DHT22;4927;52.472;13.108;2023-08-01T04:08:39;17.00;99.90
9776;DHT22;4927;52.472;13.108;2023-08-01T04:09:40;17.00;99.90
9776;DHT22;4927;52.472;13.108;2023-08-01T04:10:42;17.00;99.90
9776;DHT22;4927;52.472;13.108;2023-08-01T04:11:44;17.10;99.90
9776;DHT22;4927;52.472;13.108;2023-08-01T04:12:45;17.10;99.90
9776;DHT22;4927;52.472;13.108;2023-08-01T04:13:47;17.10;99.90
9776;DHT22;4927;52.472;13.108;2023-08-01T04:14:49;17.10;99.90
9776;DHT22;4927;52.472;13.108;2023-08-01T04:15:50;17.10;99.90
9776;DHT22;4927;52.472;13.108;2023-08-01T04:16:52;17.10;99.90
9776;DHT22;4927;52.472;13.108;2023-08-01T04:17:53;17.10;99.90
9776;DHT22;4927;52.472;13.108;2023-08-01T04:18:55;17.10;99.90
9776;DHT22;4927;52.472;13.108;2023-08-01T04:19:57;17.10;99.90
9776;DHT22;4927;52.472;13.108;2023-08-01T04:20:58;17.10;99.90
9776;DHT22;4927;52.472;13.108;2023-08-01T04:22:00;17.10;99.90
9776;DHT22;4927;52.472;13.108;2023-08-01T04:23:02;17.10;99.90
9776;DHT22;4927;52.472;13.108;2023-08-01T04:24:03;17.10;99.90
9776;DHT22;4927;52.472;13.108;2023-08-01T04:25:06;17.10;99.90
9776;DHT22;4927;52.472;13.108;2023-08-01T04:26:09;17.20;99.90
9776;DHT22;4927;52.472;13.108;2023-08-01T04:27:11;17.20;99.90
9776;DHT22;4927;52.472;13.108;2023-08-01T04:28:13;17.20;99.90
9776;DHT22;4927;52.472;13.108;2023-08-01T04:29:14;17.20;99.90
9776;DHT22;4927;52.472;13.108;2023-08-01T04:30:16;17.20;99.90
9776;DHT22;4927;52.472;13.108;2023-08-01T04:31:18;17.10;99.90
9776;DHT22;4927;52.472;13.108;2023-08-01T04:32:20;17.10;99.90
9776;DHT22;4927;52.472;13.108;2023-08-01T04:33:22;17.10;99.90
9776;DHT22;4927;52.472;13.108;2023-08-01T04:34:23;17.20;99.90
9776;DHT22;4927;52.472;13.108;2023-08-01T04:35:25;17.20;99.90
9776;DHT22;4927;52.472;13.108;2023-08-01T04:36:33;17.20;99.90
9776;DHT22;4927;52.472;13.108;2023-08-01T04:37:35;17.20;99.90
9776;DHT22;4927;52.472;13.108;2023-08-01T04:38:37;17.10;99.90
9776;DHT22;4927;52.472;13.108;2023-08-01T04:39:38;17.10;99.90
9776;DHT22;4927;52.472;13.108;2023-08-01T04:40:40;17.20;99.90
9776;DHT22;4927;52.472;13.108;2023-08-01T04:41:42;17.20;99.90
9776;DHT22;4927;52.472;13.108;2023-08-01T04:42:44;17.10;99.90
9776;DHT22;4927;52.472;13.108;2023-08-01T04:43:45;17.20;99.90
9776;DHT22;4927;52.472;13.108;2023-08-01T04:44:47;17.20;99.90
9776;DHT22;4927;52.472;13.108;2023-08-01T04:45:49;17.10;99.90
9776;DHT22;4927;52.472;13.108;2023-08-01T04:46:50;17.20;99.90
9776;DHT22;4927;52.472;13.108;2023-08-01T04:47:52;17.20;99.90
9776;DHT22;4927;52.472;13.108;2023-08-01T04:48:54;17.20;99.90
9776;DHT22;4927;52.472;13.108;2023-08-01T04:49:55;17.10;99.90
9776;DHT22;4927;52.472;13.108;2023-08-01T04:50:57;17.20;99.90
9776;DHT22;4927;52.472;13.108;2023-08-01T04:51:58;17.20;99.90
9776;DHT22;4927;52.472;13.108;2023-08-01T04:53:00;17.20;99.90
9776;DHT22;4927;52.472;13.108;2023-08-01T04:54:02;17.20;99.90
9776;DHT22;4927;52.472;13.108;2023-08-01T04:55:04;17.20;99.90
9776;DHT22;4927;52.472;13.108;2023-08-01T04:56:07;17.20;99.90
9776;DHT22;4927;52.472;13.108;2023-08-01T04:57:09;17.20;99.90
9776;DHT22;4927;52.472;13.108;2023-08-01T04:58:11;17.20;99.90
9776;DHT22;4927;52.472;13.108;2023-08-01T04:59:12;17.20;99.90
9776;DHT22;4927;52.472;13.108;2023-08-01T05:00:22;17.20;99.90
9776;DHT22;4927;52.472;13.108;2023-08-01T05:01:23;17.20;99.90
9776;DHT22;4927;52.472;13.108;2023-08-01T05:02:25;17.20;99.90
9776;DHT22;4927;52.472;13.108;2023-08-01T05:03:28;17.20;99.90
9776;DHT22;4927;52.472;13.108;2023-08-01T05:04:29;17.20;99.90
9776;DHT22;4927;52.472;13.108;2023-08-01T05:05:31;17.30;99.90
9776;DHT22;4927;52.472;13.108;2023-08-01T05:06:32;17.30;99.90
9776;DHT22;4927;52.472;13.108;2023-08-01T05:07:34;17.20;99.90
9776;DHT22;4927;52.472;13.108;2023-08-01T05:08:36;17.30;99.90
9776;DHT22;4927;52.472;13.108;2023-08-01T05:09:38;17.20;99.90
9776;DHT22;4927;52.472;13.108;2023-08-01T05:10:39;17.30;99.90
9776;DHT22;4927;52.472;13.108;2023-08-01T05:11:41;17.30;99.90
9776;DHT22;4927;52.472;13.108;2023-08-01T05:12:42;17.30;99.90
9776;DHT22;4927;52.472;13.108;2023-08-01T05:13:44;17.30;99.90
9776;DHT22;4927;52.472;13.108;2023-08-01T05:14:46;17.30;99.90
9776;DHT22;4927;52.472;13.108;2023-08-01T05:15:47;17.30;99.90
9776;DHT22;4927;52.472;13.108;2023-08-01T05:16:49;17.30;99.90
9776;DHT22;4927;52.472;13.108;2023-08-01T05:17:52;17.30;99.90
9776;DHT22;4927;52.472;13.108;2023-08-01T05:18:52;17.30;99.90
9776;DHT22;4927;52.472;13.108;2023-08-01T05:19:54;17.30;99.90
9776;DHT22;4927;52.472;13.108;2023-08-01T05:20:56;17.30;99.90
9776;DHT22;4927;52.472;13.108;2023-08-01T05:21:58;17.30;99.90
9776;DHT22;4927;52.472;13.108;2023-08-01T05:22:59;17.30;99.90
9776;DHT22;4927;52.472;13.108;2023-08-01T05:24:01;17.30;99.90
9776;DHT22;4927;52.472;13.108;2023-08-01T05:25:03;17.30;99.90
9776;DHT22;4927;52.472;13.108;2023-08-01T05:26:06;17.30;99.90
9776;DHT22;4927;52.472;13.108;2023-08-01T05:27:07;17.40;99.90
9776;DHT22;4927;52.472;13.108;2023-08-01T05:28:09;17.30;99.90
9776;DHT22;4927;52.472;13.108;2023-08-01T05:29:11;17.40;99.90
9776;DHT22;4927;52.472;13.108;2023-08-01T05:30:12;17.40;99.90
9776;DHT22;4927;52.472;13.108;2023-08-01T05:31:14;17.40;99.90
9776;DHT22;4927;52.472;13.108;2023-08-01T05:32:16;17.40;99.90
9776;DHT22;4927;52.472;13.108;2023-08-01T05:33:17;17.40;99.90
9776;DHT22;4927;52.472;13.108;2023-08-01T05:34:19;17.40;99.90
9776;DHT22;4927;52.472;13.108;2023-08-01T05:35:21;17.40;99.90
9776;DHT22;4927;52.472;13.108;2023-08-01T05:36:22;17.40;99.90
9776;DHT22;4927;52.472;13.108;2023-08-01T05:37:24;17.40;99.90
9776;DHT22;4927;52.472;13.108;2023-08-01T05:38:25;17.40;99.90
9776;DHT22;4927;52.472;13.108;2023-08-01T05:39:27;17.40;99.90
9776;DHT22;4927;52.472;13.108;2023-08-01T05:40:29;17.40;99.90
9776;DHT22;4927;52.472;13.108;2023-08-01T05:41:31;17.40;99.90
9776;DHT22;4927;52.472;13.108;2023-08-01T05:42:33;17.40;99.90
9776;DHT22;4927;52.472;13.108;2023-08-01T05:43:34;17.40;99.90
9776;DHT22;4927;52.472;13.108;2023-08-01T05:44:36;17.40;99.90
9776;DHT22;4927;52.472;13.108;2023-08-01T05:45:38;17.50;99.90
9776;DHT22;4927;52.472;13.108;2023-08-01T05:46:39;17.50;99.90
9776;DHT22;4927;52.472;13.108;2023-08-01T05:47:41;17.50;99.90
9776;DHT22;4927;52.472;13.108;2023-08-01T05:48:43;17.50;99.90
9776;DHT22;4927;52.472;13.108;2023-08-01T05:49:45;17.50;99.90
9776;DHT22;4927;52.472;13.108;2023-08-01T05:50:46;17.50;99.90
9776;DHT22;4927;52.472;13.108;2023-08-01T05:51:48;17.50;99.90
9776;DHT22;4927;52.472;13.108;2023-08-01T05:52:50;17.50;99.90
9776;DHT22;4927;52.472;13.108;2023-08-01T05:53:52;17.50;99.90
9776;DHT22;4927;52.472;13.108;2023-08-01T05:54:53;17.50;99.90
9776;DHT22;4927;52.472;13.108;2023-08-01T05:55:55;17.60;99.90
9776;DHT22;4927;52.472;13.108;2023-08-01T05:56:57;17.60;99.90
9776;DHT22;4927;52.472;13.108;2023-08-01T05:57:58;17.60;99.90
9776;DHT22;4927;52.472;13.108;2023-08-01T05:59:00;17.60;99.90
9776;DHT22;4927;52.472;13.108;2023-08-01T06:00:03;17.60;99.90
9776;DHT22;4927;52.472;13.108;2023-08-01T06:01:06;17.60;99.90
9776;DHT22;4927;52.472;13.108;2023-08-01T06:02:07;17.60;99.90
9776;DHT22;4927;52.472;13.108;2023-08-01T06:03:09;17.60;99.90
9776;DHT22;4927;52.472;13.108;2023-08-01T06:04:10;17.60;99.90
9776;DHT22;4927;52.472;13.108;2023-08-01T06:05:12;17.60;99.90
9776;DHT22;4927;52.472;13.108;2023-08-01T06:06:14;17.70;99.90
9776;DHT22;4927;52.472;13.108;2023-08-01T06:07:15;17.70;99.90
9776;DHT22;4927;52.472;13.108;2023-08-01T06:08:17;17.70;99.90
9776;DHT22;4927;52.472;13.108;2023-08-01T06:09:19;17.70;99.90
9776;DHT22;4927;52.472;13.108;2023-08-01T06:10:21;17.70;99.90
9776;DHT22;4927;52.472;13.108;2023-08-01T06:11:22;17.70;99.90
9776;DHT22;4927;52.472;13.108;2023-08-01T06:12:24;17.70;99.90
9776;DHT22;4927;52.472;13.108;2023-08-01T06:13:25;17.70;99.90
9776;DHT22;4927;52.472;13.108;2023-08-01T06:14:27;17.70;99.90
9776;DHT22;4927;52.472;13.108;2023-08-01T06:15:29;17.70;99.90
9776;DHT22;4927;52.472;13.108;2023-08-01T06:16:31;17.80;99.90
9776;DHT22;4927;52.472;13.108;2023-08-01T06:17:32;17.80;99.90
9776;DHT22;4927;52.472;13.108;2023-08-01T06:18:34;17.80;99.90
9776;DHT22;4927;52.472;13.108;2023-08-01T06:19:35;17.80;99.90
9776;DHT22;4927;52.472;13.108;2023-08-01T06:20:37;17.80;99.90
9776;DHT22;4927;52.472;13.108;2023-08-01T06:21:39;17.80;99.90
9776;DHT22;4927;52.472;13.108;2023-08-01T06:22:41;17.80;99.90
9776;DHT22;4927;52.472;13.108;2023-08-01T06:23:42;17.80;99.90
9776;DHT22;4927;52.472;13.108;2023-08-01T06:24:44;17.80;99.90
9776;DHT22;4927;52.472;13.108;2023-08-01T06:25:45;17.80;99.90
9776;DHT22;4927;52.472;13.108;2023-08-01T06:26:47;17.80;99.90
9776;DHT22;4927;52.472;13.108;2023-08-01T06:27:48;17.80;99.90
9776;DHT22;4927;52.472;13.108;2023-08-01T06:28:50;17.80;99.90
9776;DHT22;4927;52.472;13.108;2023-08-01T06:29:52;17.80;99.90
9776;DHT22;4927;52.472;13.108;2023-08-01T06:30:53;17.80;99.90
9776;DHT22;4927;52.472;13.108;2023-08-01T06:31:56;17.80;99.90
9776;DHT22;4927;52.472;13.108;2023-08-01T06:32:57;17.80;99.90
9776;DHT22;4927;52.472;13.108;2023-08-01T06:33:59;17.80;99.90
9776;DHT22;4927;52.472;13.108;2023-08-01T06:35:01;17.80;99.90
9776;DHT22;4927;52.472;13.108;2023-08-01T06:36:04;17.80;99.90
9776;DHT22;4927;52.472;13.108;2023-08-01T06:37:05;17.80;99.90